Bw Arctic — 3EDI6 — position and weather

sailwx.info

Track history (hours):
 
Tides and Currents Weather Stations Pressure Air Temp Water Temp Dewpoint Dewpoint Depression Visibility Wind Speed Wind Dir Waves Ship Positions

Bw Arctic

Last reported at 2015-May-23 06:34 UTC. Time now 2015-May-23 07:20 UTC.
Position N 53°38' W 000°12'.

Length 292 m; beam 48 m; draft 17.2 m.

Type: Cargo ship. MMSI: 371579000.

Date/timePositionNaut miles runAvg speedWind from/ knotsBaromVisibWave heightAir tempDewpointWater temp
2015-May-23 06:34N 53°38' W 000°12'0 0.0
2015-May-23 05:33N 53°38' W 000°12'0 0.0
2015-May-23 04:34N 53°38' W 000°12'0 0.0
2015-May-23 03:33N 53°38' W 000°12'0 0.0
2015-May-23 02:33N 53°38' W 000°12'0 0.0
2015-May-23 01:33N 53°38' W 000°12'0 0.0
2015-May-23 00:33N 53°38' W 000°12'0 0.0
2015-May-22 23:33N 53°38' W 000°12'0 0.0
2015-May-22 22:33N 53°38' W 000°12'0 0.0
2015-May-22 21:33N 53°38' W 000°12'0 0.0
2015-May-22 20:33N 53°38' W 000°12'0 0.0
2015-May-22 19:33N 53°38' W 000°12'0 0.0
2015-May-22 18:33N 53°38' W 000°12'0 0.0
2015-May-22 17:34N 53°38' W 000°12'0 0.0
2015-May-22 16:33N 53°38' W 000°12'0 0.0
2015-May-22 15:33N 53°38' W 000°12'0 0.0
2015-May-22 14:33N 53°38' W 000°12'0 0.0
2015-May-22 13:33N 53°38' W 000°12'0 0.0
2015-May-22 12:34N 53°38' W 000°12'0 0.0
2015-May-22 11:33N 53°38' W 000°12'0 0.0
2015-May-22 10:33N 53°38' W 000°12'0 0.0
2015-May-22 09:33N 53°38' W 000°12'0 0.0
2015-May-22 08:33N 53°38' W 000°12'0 0.0
2015-May-22 07:33N 53°38' W 000°12'0 0.0
2015-May-22 06:33N 53°38' W 000°12'0 0.0
2015-May-22 05:33N 53°38' W 000°12'0 0.0
2015-May-22 04:33N 53°38' W 000°12'0 0.0
2015-May-22 03:33N 53°38' W 000°12'0 0.0
2015-May-22 02:33N 53°38' W 000°12'0 0.0
2015-May-22 01:33N 53°38' W 000°12'0 0.0
2015-May-22 00:33N 53°38' W 000°12'0 0.0
2015-May-21 23:34N 53°38' W 000°12'0 0.0
2015-May-21 22:33N 53°38' W 000°12'0 0.0
2015-May-21 21:33N 53°38' W 000°12'0 0.0
2015-May-21 20:34N 53°38' W 000°12'4 3.7
2015-May-21 19:33N 53°37' W 000°06'9 9.2
2015-May-21 18:33N 53°33' E 000°09'8 8.1
2015-May-21 17:33N 53°37' E 000°21'4 3.5
2015-May-21 16:33N 53°41' E 000°23'6 5.7
2015-May-21 15:33N 53°45' E 000°29'1 0.7
2015-May-21 14:26N 53°46' E 000°30'0 0.0
2015-May-21 13:26N 53°46' E 000°30'0 0.0
2015-May-21 12:26N 53°46' E 000°30'0 0.0
2015-May-21 11:26N 53°46' E 000°30'0 0.1
2015-May-21 10:14N 53°46' E 000°30'0 0.2
2015-May-21 09:29N 53°45' E 000°30'0 0.1
2015-May-21 08:32N 53°45' E 000°30'0 0.0
2015-May-21 07:20N 53°45' E 000°30'0 0.0
2015-May-21 06:32N 53°45' E 000°30'0 0.0
2015-May-21 05:20N 53°45' E 000°30'0 0.0
2015-May-21 04:17N 53°45' E 000°30'0 0.1
2015-May-21 03:08N 53°45' E 000°30'0 0.4
2015-May-21 02:23N 53°46' E 000°30'0 0.1
2015-May-21 01:26N 53°46' E 000°30'0 0.0
2015-May-21 00:23N 53°46' E 000°30'0 0.0
2015-May-20 23:26N 53°46' E 000°30'0 0.0
2015-May-20 22:23N 53°46' E 000°30'0 0.2
2015-May-20 21:29N 53°45' E 000°30'0 0.1
2015-May-20 20:14N 53°45' E 000°30'0 0.0
2015-May-20 19:26N 53°45' E 000°30'0 0.0
2015-May-20 18:32N 53°45' E 000°30'0 0.0
2015-May-20 17:29N 53°45' E 000°30'0 0.0
2015-May-20 16:32N 53°45' E 000°30'0 0.0
2015-May-20 15:32N 53°45' E 000°30'0 0.2
2015-May-20 14:17N 53°45' E 000°30'0 0.1
2015-May-20 13:32N 53°46' E 000°30'0 0.0
2015-May-20 12:20N 53°46' E 000°30'0 0.0
2015-May-20 10:23N 53°46' E 000°30'0 0.2
2015-May-20 09:26N 53°45' E 000°30'0 0.2
2015-May-20 08:14N 53°45' E 000°30'0 0.1
2015-May-20 07:29N 53°45' E 000°30'0 0.0
2015-May-20 06:26N 53°45' E 000°30'0 0.0
2015-May-20 05:32N 53°45' E 000°30'0 0.0
2015-May-20 04:32N 53°45' E 000°30'0 0.0
2015-May-20 03:32N 53°45' E 000°30'0 0.1
2015-May-20 02:32N 53°45' E 000°30'0 0.3
2015-May-20 01:20N 53°46' E 000°30'0 0.1
2015-May-20 00:32N 53°46' E 000°30'0 0.0
2015-May-19 23:23N 53°46' E 000°30'0 0.0
2015-May-19 22:23N 53°46' E 000°30'0 0.0
2015-May-19 21:26N 53°46' E 000°30'0 0.1
2015-May-19 20:26N 53°45' E 000°30'0 0.2
2015-May-19 19:29N 53°45' E 000°30'0 0.1
2015-May-19 18:29N 53°45' E 000°30'0 0.0
2015-May-19 17:26N 53°45' E 000°30'0 0.0
2015-May-19 16:32N 53°45' E 000°30'0 0.0
2015-May-19 15:17N 53°45' E 000°30'0 0.1
2015-May-19 14:32N 53°45' E 000°30'0 0.3
2015-May-19 13:29N 53°46' E 000°30'0 0.1
2015-May-19 12:32N 53°46' E 000°30'0 0.0
2015-May-19 11:20N 53°46' E 000°30'0 0.0
2015-May-19 10:23N 53°46' E 000°30'0 0.1
2015-May-19 09:05N 53°46' E 000°30'0 0.1
2015-May-19 08:26N 53°45' E 000°30'0 0.1
2015-May-19 07:23N 53°45' E 000°30'0 0.1
2015-May-19 06:23N 53°45' E 000°30'0 0.1
2015-May-19 05:29N 53°45' E 000°30'0 0.0
2015-May-19 03:29N 53°45' E 000°30'0 0.2
2015-May-19 02:17N 53°45' E 000°30'0 0.2
2015-May-19 01:32N 53°46' E 000°30'0 0.1
2015-May-19 00:29N 53°46' E 000°30'0 0.0
2015-May-18 23:29N 53°46' E 000°30'0 0.0
2015-May-18 22:32N 53°46' E 000°30'0 0.0
2015-May-18 21:32N 53°46' E 000°30'0 0.1
2015-May-18 20:32N 53°46' E 000°30'0 0.1
2015-May-18 19:20N 53°45' E 000°30'0 0.1
2015-May-18 18:23N 53°45' E 000°30'0 0.0
2015-May-18 17:26N 53°45' E 000°30'0 0.0
2015-May-18 16:11N 53°45' E 000°30'0 0.0
2015-May-18 15:29N 53°45' E 000°30'0 0.1
2015-May-18 14:29N 53°45' E 000°30'0 0.2
2015-May-18 12:32N 53°46' E 000°30'0 0.0
2015-May-18 11:17N 53°46' E 000°30'0 0.0
2015-May-18 07:32N 53°46' E 000°30'0 0.2
2015-May-18 06:05N 53°45' E 000°30'0 0.1
2015-May-18 05:23N 53°45' E 000°30'0 0.0
2015-May-18 04:20N 53°45' E 000°30'0 0.0
2015-May-18 03:23N 53°45' E 000°30'0 0.0
2015-May-18 02:26N 53°45' E 000°30'0 0.2
2015-May-18 01:26N 53°45' E 000°30'0 0.3
2015-May-18 00:29N 53°46' E 000°30'0 0.0
2015-May-17 23:32N 53°46' E 000°30'0 0.0
2015-May-17 22:32N 53°46' E 000°30'0 0.0
2015-May-17 21:29N 53°46' E 000°30'0 0.0
2015-May-17 20:32N 53°46' E 000°30'0 0.1
2015-May-17 19:32N 53°46' E 000°30'0 0.2
2015-May-17 18:32N 53°45' E 000°30'0 0.2
2015-May-17 17:23N 53°45' E 000°30'0 0.0
2015-May-17 16:20N 53°45' E 000°30'0 0.0
2015-May-17 15:23N 53°45' E 000°30'0 0.0
2015-May-17 14:26N 53°45' E 000°30'0 0.0
2015-May-17 13:23N 53°45' E 000°30'1 1.2
2015-May-17 12:32N 53°46' E 000°29'6 6.3
2015-May-17 11:33N 53°50' E 000°37'126 9.6
2015-May-16 22:25N 52°51' E 003°45'1011.3
2015-May-16 21:34N 52°44' E 003°55'1111.0
2015-May-16 20:34N 52°35' E 004°06'1010.4
2015-May-16 19:34N 52°30' E 004°21'8 8.4
2015-May-16 18:33N 52°28' E 004°34'1 0.3
2015-May-16 15:32N 52°28' E 004°36'0 0.0
2015-May-16 10:26N 52°28' E 004°36'0 0.0
2015-May-16 09:29N 52°28' E 004°36'0 0.0
2015-May-16 05:29N 52°28' E 004°36'0 0.0
2015-May-15 19:18N 52°28' E 004°35'0 0.2
2015-May-15 18:19N 52°28' E 004°35'0 0.0
2015-May-15 12:07N 52°28' E 004°35'0 0.0
2015-May-15 05:31N 52°28' E 004°35'0 0.0
2015-May-15 03:25N 52°28' E 004°35'0 0.0
2015-May-15 02:19N 52°28' E 004°35'0 0.0
2015-May-15 01:22N 52°28' E 004°35'0 0.0
2015-May-14 23:25N 52°28' E 004°35'0 0.0
2015-May-14 18:13N 52°28' E 004°35'0 0.0
2015-May-14 10:19N 52°28' E 004°35'0 0.0
2015-May-14 06:16N 52°28' E 004°35'0 0.0
2015-May-14 05:32N 52°28' E 004°35'0 0.0
2015-May-14 04:31N 52°28' E 004°35'0 0.0
2015-May-14 03:28N 52°28' E 004°35'0 0.0
2015-May-14 02:23N 52°28' E 004°35'0 0.0
2015-May-14 01:33N 52°28' E 004°35'0 0.0
2015-May-13 19:33N 52°28' E 004°35'4 4.1
2015-May-13 18:33N 52°28' E 004°29'9 9.4
2015-May-13 17:33N 52°30' E 004°13'1110.3
2015-May-13 16:28N 52°30' E 003°55'13 6.6
2015-May-13 14:30N 52°43' E 003°55'8411.5
2015-May-13 07:15N 53°59' E 004°51'  
Track history (hours):
 
Tides and Currents Weather Stations Pressure Air Temp Water Temp Dewpoint Dewpoint Depression Visibility Wind Speed Wind Dir Waves Ship Positions

Bw Arctic

Last reported at 2015-May-23 06:34 UTC. Time now 2015-May-23 07:20 UTC.
Position N 53°38' W 000°12'.

Length 292 m; beam 48 m; draft 17.2 m.

Type: Cargo ship. MMSI: 371579000.

Date/timePositionNaut miles runAvg speedWind from/ knotsBaromVisibWave heightAir tempDewpointWater temp
2015-May-23 06:34N 53°38' W 000°12'0 0.0
2015-May-23 05:33N 53°38' W 000°12'0 0.0
2015-May-23 04:34N 53°38' W 000°12'0 0.0
2015-May-23 03:33N 53°38' W 000°12'0 0.0
2015-May-23 02:33N 53°38' W 000°12'0 0.0
2015-May-23 01:33N 53°38' W 000°12'0 0.0
2015-May-23 00:33N 53°38' W 000°12'0 0.0
2015-May-22 23:33N 53°38' W 000°12'0 0.0
2015-May-22 22:33N 53°38' W 000°12'0 0.0
2015-May-22 21:33N 53°38' W 000°12'0 0.0
2015-May-22 20:33N 53°38' W 000°12'0 0.0
2015-May-22 19:33N 53°38' W 000°12'0 0.0
2015-May-22 18:33N 53°38' W 000°12'0 0.0
2015-May-22 17:34N 53°38' W 000°12'0 0.0
2015-May-22 16:33N 53°38' W 000°12'0 0.0
2015-May-22 15:33N 53°38' W 000°12'0 0.0
2015-May-22 14:33N 53°38' W 000°12'0 0.0
2015-May-22 13:33N 53°38' W 000°12'0 0.0
2015-May-22 12:34N 53°38' W 000°12'0 0.0
2015-May-22 11:33N 53°38' W 000°12'0 0.0
2015-May-22 10:33N 53°38' W 000°12'0 0.0
2015-May-22 09:33N 53°38' W 000°12'0 0.0
2015-May-22 08:33N 53°38' W 000°12'0 0.0
2015-May-22 07:33N 53°38' W 000°12'0 0.0
2015-May-22 06:33N 53°38' W 000°12'0 0.0
2015-May-22 05:33N 53°38' W 000°12'0 0.0
2015-May-22 04:33N 53°38' W 000°12'0 0.0
2015-May-22 03:33N 53°38' W 000°12'0 0.0
2015-May-22 02:33N 53°38' W 000°12'0 0.0
2015-May-22 01:33N 53°38' W 000°12'0 0.0
2015-May-22 00:33N 53°38' W 000°12'0 0.0
2015-May-21 23:34N 53°38' W 000°12'0 0.0
2015-May-21 22:33N 53°38' W 000°12'0 0.0
2015-May-21 21:33N 53°38' W 000°12'0 0.0
2015-May-21 20:34N 53°38' W 000°12'4 3.7
2015-May-21 19:33N 53°37' W 000°06'9 9.2
2015-May-21 18:33N 53°33' E 000°09'8 8.1
2015-May-21 17:33N 53°37' E 000°21'4 3.5
2015-May-21 16:33N 53°41' E 000°23'6 5.7
2015-May-21 15:33N 53°45' E 000°29'1 0.7
2015-May-21 14:26N 53°46' E 000°30'0 0.0
2015-May-21 13:26N 53°46' E 000°30'0 0.0
2015-May-21 12:26N 53°46' E 000°30'0 0.0
2015-May-21 11:26N 53°46' E 000°30'0 0.1
2015-May-21 10:14N 53°46' E 000°30'0 0.2
2015-May-21 09:29N 53°45' E 000°30'0 0.1
2015-May-21 08:32N 53°45' E 000°30'0 0.0
2015-May-21 07:20N 53°45' E 000°30'0 0.0
2015-May-21 06:32N 53°45' E 000°30'0 0.0
2015-May-21 05:20N 53°45' E 000°30'0 0.0
2015-May-21 04:17N 53°45' E 000°30'0 0.1
2015-May-21 03:08N 53°45' E 000°30'0 0.4
2015-May-21 02:23N 53°46' E 000°30'0 0.1
2015-May-21 01:26N 53°46' E 000°30'0 0.0
2015-May-21 00:23N 53°46' E 000°30'0 0.0
2015-May-20 23:26N 53°46' E 000°30'0 0.0
2015-May-20 22:23N 53°46' E 000°30'0 0.2
2015-May-20 21:29N 53°45' E 000°30'0 0.1
2015-May-20 20:14N 53°45' E 000°30'0 0.0
2015-May-20 19:26N 53°45' E 000°30'0 0.0
2015-May-20 18:32N 53°45' E 000°30'0 0.0
2015-May-20 17:29N 53°45' E 000°30'0 0.0
2015-May-20 16:32N 53°45' E 000°30'0 0.0
2015-May-20 15:32N 53°45' E 000°30'0 0.2
2015-May-20 14:17N 53°45' E 000°30'0 0.1
2015-May-20 13:32N 53°46' E 000°30'0 0.0
2015-May-20 12:20N 53°46' E 000°30'0 0.0
2015-May-20 10:23N 53°46' E 000°30'0 0.2
2015-May-20 09:26N 53°45' E 000°30'0 0.2
2015-May-20 08:14N 53°45' E 000°30'0 0.1
2015-May-20 07:29N 53°45' E 000°30'0 0.0
2015-May-20 06:26N 53°45' E 000°30'0 0.0
2015-May-20 05:32N 53°45' E 000°30'0 0.0
2015-May-20 04:32N 53°45' E 000°30'0 0.0
2015-May-20 03:32N 53°45' E 000°30'0 0.1
2015-May-20 02:32N 53°45' E 000°30'0 0.3
2015-May-20 01:20N 53°46' E 000°30'0 0.1
2015-May-20 00:32N 53°46' E 000°30'0 0.0
2015-May-19 23:23N 53°46' E 000°30'0 0.0
2015-May-19 22:23N 53°46' E 000°30'0 0.0
2015-May-19 21:26N 53°46' E 000°30'0 0.1
2015-May-19 20:26N 53°45' E 000°30'0 0.2
2015-May-19 19:29N 53°45' E 000°30'0 0.1
2015-May-19 18:29N 53°45' E 000°30'0 0.0
2015-May-19 17:26N 53°45' E 000°30'0 0.0
2015-May-19 16:32N 53°45' E 000°30'0 0.0
2015-May-19 15:17N 53°45' E 000°30'0 0.1
2015-May-19 14:32N 53°45' E 000°30'0 0.3
2015-May-19 13:29N 53°46' E 000°30'0 0.1
2015-May-19 12:32N 53°46' E 000°30'0 0.0
2015-May-19 11:20N 53°46' E 000°30'0 0.0
2015-May-19 10:23N 53°46' E 000°30'0 0.1
2015-May-19 09:05N 53°46' E 000°30'0 0.1
2015-May-19 08:26N 53°45' E 000°30'0 0.1
2015-May-19 07:23N 53°45' E 000°30'0 0.1
2015-May-19 06:23N 53°45' E 000°30'0 0.1
2015-May-19 05:29N 53°45' E 000°30'0 0.0
2015-May-19 03:29N 53°45' E 000°30'0 0.2
2015-May-19 02:17N 53°45' E 000°30'0 0.2
2015-May-19 01:32N 53°46' E 000°30'0 0.1
2015-May-19 00:29N 53°46' E 000°30'0 0.0
2015-May-18 23:29N 53°46' E 000°30'0 0.0
2015-May-18 22:32N 53°46' E 000°30'0 0.0
2015-May-18 21:32N 53°46' E 000°30'0 0.1
2015-May-18 20:32N 53°46' E 000°30'0 0.1
2015-May-18 19:20N 53°45' E 000°30'0 0.1
2015-May-18 18:23N 53°45' E 000°30'0 0.0
2015-May-18 17:26N 53°45' E 000°30'0 0.0
2015-May-18 16:11N 53°45' E 000°30'0 0.0
2015-May-18 15:29N 53°45' E 000°30'0 0.1
2015-May-18 14:29N 53°45' E 000°30'0 0.2
2015-May-18 12:32N 53°46' E 000°30'0 0.0
2015-May-18 11:17N 53°46' E 000°30'0 0.0
2015-May-18 07:32N 53°46' E 000°30'0 0.2
2015-May-18 06:05N 53°45' E 000°30'0 0.1
2015-May-18 05:23N 53°45' E 000°30'0 0.0
2015-May-18 04:20N 53°45' E 000°30'0 0.0
2015-May-18 03:23N 53°45' E 000°30'0 0.0
2015-May-18 02:26N 53°45' E 000°30'0 0.2
2015-May-18 01:26N 53°45' E 000°30'0 0.3
2015-May-18 00:29N 53°46' E 000°30'0 0.0
2015-May-17 23:32N 53°46' E 000°30'0 0.0
2015-May-17 22:32N 53°46' E 000°30'0 0.0
2015-May-17 21:29N 53°46' E 000°30'0 0.0
2015-May-17 20:32N 53°46' E 000°30'0 0.1
2015-May-17 19:32N 53°46' E 000°30'0 0.2
2015-May-17 18:32N 53°45' E 000°30'0 0.2
2015-May-17 17:23N 53°45' E 000°30'0 0.0
2015-May-17 16:20N 53°45' E 000°30'0 0.0
2015-May-17 15:23N 53°45' E 000°30'0 0.0
2015-May-17 14:26N 53°45' E 000°30'0 0.0
2015-May-17 13:23N 53°45' E 000°30'1 1.2
2015-May-17 12:32N 53°46' E 000°29'6 6.3
2015-May-17 11:33N 53°50' E 000°37'126 9.6
2015-May-16 22:25N 52°51' E 003°45'1011.3
2015-May-16 21:34N 52°44' E 003°55'1111.0
2015-May-16 20:34N 52°35' E 004°06'1010.4
2015-May-16 19:34N 52°30' E 004°21'8 8.4
2015-May-16 18:33N 52°28' E 004°34'1 0.3
2015-May-16 15:32N 52°28' E 004°36'0 0.0
2015-May-16 10:26N 52°28' E 004°36'0 0.0
2015-May-16 09:29N 52°28' E 004°36'0 0.0
2015-May-16 05:29N 52°28' E 004°36'0 0.0
2015-May-15 19:18N 52°28' E 004°35'0 0.2
2015-May-15 18:19N 52°28' E 004°35'0 0.0
2015-May-15 12:07N 52°28' E 004°35'0 0.0
2015-May-15 05:31N 52°28' E 004°35'0 0.0
2015-May-15 03:25N 52°28' E 004°35'0 0.0
2015-May-15 02:19N 52°28' E 004°35'0 0.0
2015-May-15 01:22N 52°28' E 004°35'0 0.0
2015-May-14 23:25N 52°28' E 004°35'0 0.0
2015-May-14 18:13N 52°28' E 004°35'0 0.0
2015-May-14 10:19N 52°28' E 004°35'0 0.0
2015-May-14 06:16N 52°28' E 004°35'0 0.0
2015-May-14 05:32N 52°28' E 004°35'0 0.0
2015-May-14 04:31N 52°28' E 004°35'0 0.0
2015-May-14 03:28N 52°28' E 004°35'0 0.0
2015-May-14 02:23N 52°28' E 004°35'0 0.0
2015-May-14 01:33N 52°28' E 004°35'0 0.0
2015-May-13 19:33N 52°28' E 004°35'4 4.1
2015-May-13 18:33N 52°28' E 004°29'9 9.4
2015-May-13 17:33N 52°30' E 004°13'1110.3
2015-May-13 16:28N 52°30' E 003°55'13 6.6
2015-May-13 14:30N 52°43' E 003°55'8411.5
2015-May-13 07:15N 53°59' E 004°51'  

Dump ship's entire track history